Date,TemperatureHighF,TemperatureAvgF,TemperatureLowF,DewpointHighF,DewpointAvgF,DewpointLowF,HumidityHigh,HumidityAvg,HumidityLow,PressureMaxIn,PressureMinIn,WindSpeedMaxMPH,WindSpeedAvgMPH,GustSpeedMaxMPH,PrecipitationSumIn
2013-5-1,84,76,70,74,72,69,97,86,69,29.85,29.70,10,3,0,0.01
2013-5-2,78,69,55,72,62,44,95,79,63,30.21,29.80,22,9,0,0.02
2013-5-3,70,60,52,49,36,31,78,44,25,30.26,30.04,26,11,0,0.00
2013-5-4,80,64,49,56,47,38,83,57,25,30.06,29.86,10,3,0,0.00
2013-5-5,80,67,56,62,57,53,94,72,40,30.03,29.90,15,2,0,0.00
2013-5-6,78,68,58,66,59,56,97,75,51,30.06,29.92,11,2,0,0.00
2013-5-7,80,71,61,67,63,59,95,77,60,30.02,29.90,12,3,0,0.00
2013-5-8,82,74,69,71,69,66,94,83,66,29.97,29.86,14,4,0,0.00
2013-5-9,80,76,73,74,73,71,95,90,80,29.89,29.75,14,4,0,0.00
2013-5-10,79,75,72,76,73,69,97,93,87,29.89,29.76,14,4,0,0.02
2013-5-11,84,76,70,71,69,66,96,80,59,30.03,29.87,15,5,0,0.02
2013-5-12,76,72,64,70,64,59,94,78,63,30.12,29.98,17,5,0,0.11
2013-5-13,80,73,63,68,65,62,95,78,57,30.21,30.09,13,3,0,0.11
2013-5-14,84,76,70,72,70,66,90,82,66,30.16,30.00,13,4,0,0.00
2013-5-15,80,76,73,74,72,71,97,90,81,30.06,29.83,16,6,0,0.19
2013-5-16,85,78,72,76,73,70,93,86,75,29.85,29.68,17,6,0,0.19
2013-5-17,88,79,74,77,74,71,94,84,57,29.85,29.73,13,6,0,0.00
2013-5-18,87,80,76,76,74,73,94,84,63,29.86,29.77,23,6,0,0.00
2013-5-19,86,80,76,76,75,74,94,85,70,29.83,29.69,17,7,0,0.00
2013-5-20,86,80,76,77,75,74,94,86,74,29.78,29.66,15,6,0,0.00
2013-5-21,87,80,76,77,76,74,95,87,73,29.75,29.64,11,5,0,0.00
2013-5-22,86,80,77,77,76,75,96,86,72,29.83,29.72,11,3,0,0.00
2013-5-23,87,81,76,78,76,75,95,87,74,29.93,29.80,12,4,0,0.00
2013-5-24,88,81,75,77,76,71,93,84,68,30.02,29.90,12,5,0,0.00
2013-5-25,83,79,77,77,76,72,94,89,78,30.03,29.95,12,5,0,0.40
2013-5-26,86,80,76,75,74,73,92,81,66,30.02,29.91,12,4,0,0.40
2013-5-27,87,81,76,76,75,74,93,82,66,29.96,29.81,15,6,0,0.00
2013-5-28,87,81,78,77,75,74,90,83,70,29.86,29.73,16,8,0,0.00
2013-5-29,84,80,78,77,76,75,90,86,78,29.79,29.67,16,6,0,0.00
2013-5-30,89,82,78,78,77,75,92,83,69,29.78,29.70,15,5,0,0.00
2013-5-31,91,83,78,78,77,76,93,82,65,29.82,29.72,13,5,0,0.00